sensor_id;sensor_type;location;lat;lon;timestamp;P1;durP1;ratioP1;P2;durP2;ratioP2
13973;SDS011;7060;43.770;4.008;2022-11-15T00:00:46;5.43;;;4.37;;
13973;SDS011;7060;43.770;4.008;2022-11-15T00:08:06;7.80;;;5.07;;
13973;SDS011;7060;43.770;4.008;2022-11-15T00:11:00;6.47;;;5.77;;
13973;SDS011;7060;43.770;4.008;2022-11-15T00:13:49;8.07;;;6.77;;
13973;SDS011;7060;43.770;4.008;2022-11-15T00:19:36;6.97;;;5.60;;
13973;SDS011;7060;43.770;4.008;2022-11-15T00:25:56;5.40;;;4.90;;
13973;SDS011;7060;43.770;4.008;2022-11-15T00:28:57;7.27;;;5.80;;
13973;SDS011;7060;43.770;4.008;2022-11-15T00:31:49;7.67;;;5.73;;
13973;SDS011;7060;43.770;4.008;2022-11-15T00:34:50;9.87;;;6.20;;
13973;SDS011;7060;43.770;4.008;2022-11-15T00:37:38;7.33;;;6.10;;
13973;SDS011;7060;43.770;4.008;2022-11-15T00:40:31;7.80;;;6.73;;
13973;SDS011;7060;43.770;4.008;2022-11-15T00:43:19;6.73;;;6.03;;
13973;SDS011;7060;43.770;4.008;2022-11-15T00:49:25;9.87;;;6.87;;
13973;SDS011;7060;43.770;4.008;2022-11-15T00:52:18;10.13;;;7.03;;
13973;SDS011;7060;43.770;4.008;2022-11-15T00:55:06;7.77;;;6.60;;
13973;SDS011;7060;43.770;4.008;2022-11-15T01:18:19;7.50;;;5.77;;
13973;SDS011;7060;43.770;4.008;2022-11-15T01:21:07;7.20;;;6.00;;
13973;SDS011;7060;43.770;4.008;2022-11-15T01:23:56;7.63;;;6.30;;
13973;SDS011;7060;43.770;4.008;2022-11-15T01:30:00;8.40;;;6.40;;
13973;SDS011;7060;43.770;4.008;2022-11-15T01:32:50;6.73;;;6.00;;
13973;SDS011;7060;43.770;4.008;2022-11-15T01:35:40;7.23;;;6.10;;
13973;SDS011;7060;43.770;4.008;2022-11-15T01:38:34;11.83;;;8.40;;
13973;SDS011;7060;43.770;4.008;2022-11-15T01:41:23;8.73;;;6.53;;
13973;SDS011;7060;43.770;4.008;2022-11-15T01:47:33;7.20;;;5.97;;
13973;SDS011;7060;43.770;4.008;2022-11-15T01:50:26;6.50;;;5.90;;
13973;SDS011;7060;43.770;4.008;2022-11-15T01:53:20;8.27;;;6.43;;
13973;SDS011;7060;43.770;4.008;2022-11-15T01:56:11;7.77;;;6.27;;
13973;SDS011;7060;43.770;4.008;2022-11-15T01:59:04;8.13;;;6.33;;
13973;SDS011;7060;43.770;4.008;2022-11-15T02:02:07;6.83;;;6.00;;
13973;SDS011;7060;43.770;4.008;2022-11-15T02:05:00;6.53;;;5.90;;
13973;SDS011;7060;43.770;4.008;2022-11-15T02:10:50;8.87;;;6.47;;
13973;SDS011;7060;43.770;4.008;2022-11-15T02:13:40;6.23;;;5.63;;
13973;SDS011;7060;43.770;4.008;2022-11-15T02:16:30;8.10;;;6.53;;
13973;SDS011;7060;43.770;4.008;2022-11-15T02:19:38;9.40;;;6.33;;
13973;SDS011;7060;43.770;4.008;2022-11-15T02:22:51;7.50;;;6.67;;
13973;SDS011;7060;43.770;4.008;2022-11-15T02:29:02;6.93;;;6.10;;
13973;SDS011;7060;43.770;4.008;2022-11-15T02:32:04;6.53;;;5.93;;
13973;SDS011;7060;43.770;4.008;2022-11-15T02:35:00;9.50;;;6.63;;
13973;SDS011;7060;43.770;4.008;2022-11-15T02:38:08;7.23;;;6.37;;
13973;SDS011;7060;43.770;4.008;2022-11-15T02:41:05;8.03;;;6.70;;
13973;SDS011;7060;43.770;4.008;2022-11-15T02:43:58;7.03;;;6.33;;
13973;SDS011;7060;43.770;4.008;2022-11-15T02:46:50;6.73;;;6.10;;
13973;SDS011;7060;43.770;4.008;2022-11-15T02:53:13;7.03;;;6.33;;
13973;SDS011;7060;43.770;4.008;2022-11-15T02:59:11;7.97;;;6.17;;
13973;SDS011;7060;43.770;4.008;2022-11-15T03:02:18;6.30;;;5.70;;
13973;SDS011;7060;43.770;4.008;2022-11-15T03:05:19;7.90;;;6.57;;
13973;SDS011;7060;43.770;4.008;2022-11-15T03:08:17;6.13;;;5.40;;
13973;SDS011;7060;43.770;4.008;2022-11-15T03:11:14;7.00;;;6.03;;
13973;SDS011;7060;43.770;4.008;2022-11-15T03:14:20;6.27;;;5.20;;
13973;SDS011;7060;43.770;4.008;2022-11-15T03:20:35;7.00;;;6.13;;
13973;SDS011;7060;43.770;4.008;2022-11-15T03:23:25;10.57;;;5.77;;
13973;SDS011;7060;43.770;4.008;2022-11-15T03:26:21;7.50;;;5.63;;
13973;SDS011;7060;43.770;4.008;2022-11-15T03:35:49;6.40;;;5.80;;
13973;SDS011;7060;43.770;4.008;2022-11-15T03:38:49;6.10;;;5.53;;
13973;SDS011;7060;43.770;4.008;2022-11-15T03:41:43;6.90;;;6.10;;
13973;SDS011;7060;43.770;4.008;2022-11-15T03:44:40;6.70;;;5.70;;
13973;SDS011;7060;43.770;4.008;2022-11-15T03:47:40;7.47;;;5.67;;
13973;SDS011;7060;43.770;4.008;2022-11-15T03:50:41;6.33;;;5.37;;
13973;SDS011;7060;43.770;4.008;2022-11-15T03:53:33;9.63;;;5.80;;
13973;SDS011;7060;43.770;4.008;2022-11-15T03:56:33;8.13;;;5.77;;
13973;SDS011;7060;43.770;4.008;2022-11-15T03:59:22;6.27;;;5.67;;
13973;SDS011;7060;43.770;4.008;2022-11-15T04:02:09;7.00;;;6.10;;
13973;SDS011;7060;43.770;4.008;2022-11-15T04:04:57;9.27;;;5.40;;
13973;SDS011;7060;43.770;4.008;2022-11-15T04:11:05;6.97;;;5.50;;
13973;SDS011;7060;43.770;4.008;2022-11-15T04:13:59;7.63;;;5.70;;
13973;SDS011;7060;43.770;4.008;2022-11-15T04:16:48;7.53;;;5.80;;
13973;SDS011;7060;43.770;4.008;2022-11-15T04:26:58;6.83;;;5.43;;
13973;SDS011;7060;43.770;4.008;2022-11-15T04:29:59;8.30;;;5.47;;
13973;SDS011;7060;43.770;4.008;2022-11-15T04:32:52;9.87;;;5.50;;
13973;SDS011;7060;43.770;4.008;2022-11-15T04:35:41;6.80;;;5.47;;
13973;SDS011;7060;43.770;4.008;2022-11-15T04:38:33;7.43;;;5.30;;
13973;SDS011;7060;43.770;4.008;2022-11-15T04:41:21;6.63;;;5.50;;
13973;SDS011;7060;43.770;4.008;2022-11-15T04:54:50;6.43;;;5.33;;
13973;SDS011;7060;43.770;4.008;2022-11-15T05:01:33;6.23;;;5.10;;
13973;SDS011;7060;43.770;4.008;2022-11-15T05:04:29;6.18;;;5.68;;
13973;SDS011;7060;43.770;4.008;2022-11-15T05:07:15;5.47;;;4.97;;
13973;SDS011;7060;43.770;4.008;2022-11-15T05:10:02;9.10;;;5.50;;
13973;SDS011;7060;43.770;4.008;2022-11-15T05:12:50;5.20;;;4.70;;
13973;SDS011;7060;43.770;4.008;2022-11-15T05:15:37;7.70;;;5.37;;
13973;SDS011;7060;43.770;4.008;2022-11-15T05:18:27;6.00;;;5.40;;
13973;SDS011;7060;43.770;4.008;2022-11-15T05:21:14;7.30;;;5.40;;
13973;SDS011;7060;43.770;4.008;2022-11-15T05:24:02;7.47;;;4.80;;
13973;SDS011;7060;43.770;4.008;2022-11-15T05:26:49;5.87;;;5.17;;
13973;SDS011;7060;43.770;4.008;2022-11-15T05:29:36;5.40;;;4.87;;
13973;SDS011;7060;43.770;4.008;2022-11-15T05:32:23;7.23;;;5.30;;
13973;SDS011;7060;43.770;4.008;2022-11-15T05:35:12;7.97;;;5.30;;
13973;SDS011;7060;43.770;4.008;2022-11-15T05:38:01;5.13;;;4.50;;
13973;SDS011;7060;43.770;4.008;2022-11-15T05:40:49;5.23;;;4.70;;
13973;SDS011;7060;43.770;4.008;2022-11-15T05:43:36;5.50;;;4.87;;
13973;SDS011;7060;43.770;4.008;2022-11-15T05:46:27;5.70;;;4.53;;
13973;SDS011;7060;43.770;4.008;2022-11-15T05:49:17;6.03;;;5.00;;
13973;SDS011;7060;43.770;4.008;2022-11-15T05:52:08;5.43;;;4.90;;
13973;SDS011;7060;43.770;4.008;2022-11-15T05:54:58;6.10;;;4.77;;
13973;SDS011;7060;43.770;4.008;2022-11-15T05:57:45;5.70;;;4.63;;
13973;SDS011;7060;43.770;4.008;2022-11-15T06:00:32;5.77;;;4.87;;
13973;SDS011;7060;43.770;4.008;2022-11-15T06:03:20;6.37;;;4.90;;
13973;SDS011;7060;43.770;4.008;2022-11-15T06:06:08;6.07;;;4.90;;
13973;SDS011;7060;43.770;4.008;2022-11-15T06:09:02;7.13;;;4.40;;
13973;SDS011;7060;43.770;4.008;2022-11-15T06:11:49;7.40;;;5.23;;
13973;SDS011;7060;43.770;4.008;2022-11-15T06:14:36;5.87;;;5.00;;
13973;SDS011;7060;43.770;4.008;2022-11-15T06:17:23;5.67;;;5.17;;
13973;SDS011;7060;43.770;4.008;2022-11-15T06:20:10;6.17;;;4.80;;
13973;SDS011;7060;43.770;4.008;2022-11-15T06:22:57;5.70;;;4.47;;
13973;SDS011;7060;43.770;4.008;2022-11-15T06:25:47;5.37;;;4.83;;
13973;SDS011;7060;43.770;4.008;2022-11-15T06:28:34;6.80;;;4.47;;
13973;SDS011;7060;43.770;4.008;2022-11-15T06:31:21;5.60;;;5.03;;
13973;SDS011;7060;43.770;4.008;2022-11-15T06:34:08;5.23;;;4.70;;
13973;SDS011;7060;43.770;4.008;2022-11-15T06:36:55;6.13;;;5.13;;
13973;SDS011;7060;43.770;4.008;2022-11-15T06:39:42;6.00;;;5.00;;
13973;SDS011;7060;43.770;4.008;2022-11-15T06:42:30;6.10;;;5.03;;
13973;SDS011;7060;43.770;4.008;2022-11-15T06:45:17;5.70;;;5.07;;
13973;SDS011;7060;43.770;4.008;2022-11-15T06:48:05;5.97;;;4.97;;
13973;SDS011;7060;43.770;4.008;2022-11-15T06:50:52;6.87;;;5.47;;
13973;SDS011;7060;43.770;4.008;2022-11-15T06:53:40;5.20;;;4.17;;
13973;SDS011;7060;43.770;4.008;2022-11-15T06:56:27;5.50;;;4.53;;
13973;SDS011;7060;43.770;4.008;2022-11-15T06:59:15;7.70;;;5.00;;
13973;SDS011;7060;43.770;4.008;2022-11-15T07:02:03;5.33;;;4.80;;
13973;SDS011;7060;43.770;4.008;2022-11-15T07:04:50;5.73;;;5.00;;
13973;SDS011;7060;43.770;4.008;2022-11-15T07:07:37;5.20;;;4.63;;
13973;SDS011;7060;43.770;4.008;2022-11-15T07:10:24;4.87;;;4.07;;
13973;SDS011;7060;43.770;4.008;2022-11-15T07:13:13;6.30;;;4.53;;
13973;SDS011;7060;43.770;4.008;2022-11-15T07:16:02;7.93;;;4.00;;
13973;SDS011;7060;43.770;4.008;2022-11-15T07:18:50;5.07;;;4.43;;
13973;SDS011;7060;43.770;4.008;2022-11-15T07:21:37;5.37;;;4.80;;
13973;SDS011;7060;43.770;4.008;2022-11-15T07:24:25;6.00;;;4.37;;
13973;SDS011;7060;43.770;4.008;2022-11-15T07:27:12;4.97;;;4.47;;
13973;SDS011;7060;43.770;4.008;2022-11-15T07:29:59;5.00;;;4.50;;
13973;SDS011;7060;43.770;4.008;2022-11-15T07:32:48;5.57;;;4.80;;
13973;SDS011;7060;43.770;4.008;2022-11-15T07:35:39;5.70;;;4.90;;
13973;SDS011;7060;43.770;4.008;2022-11-15T07:38:27;4.70;;;4.20;;
13973;SDS011;7060;43.770;4.008;2022-11-15T07:41:15;5.40;;;4.87;;
13973;SDS011;7060;43.770;4.008;2022-11-15T07:44:02;5.67;;;4.67;;
13973;SDS011;7060;43.770;4.008;2022-11-15T07:46:49;4.97;;;4.47;;
13973;SDS011;7060;43.770;4.008;2022-11-15T07:49:37;6.03;;;4.60;;
13973;SDS011;7060;43.770;4.008;2022-11-15T07:52:25;6.90;;;4.40;;
13973;SDS011;7060;43.770;4.008;2022-11-15T07:55:11;4.47;;;4.00;;
13973;SDS011;7060;43.770;4.008;2022-11-15T07:58:01;5.57;;;4.90;;
13973;SDS011;7060;43.770;4.008;2022-11-15T08:00:49;6.63;;;4.93;;
13973;SDS011;7060;43.770;4.008;2022-11-15T08:03:36;7.97;;;5.23;;
13973;SDS011;7060;43.770;4.008;2022-11-15T08:06:24;8.00;;;5.33;;
13973;SDS011;7060;43.770;4.008;2022-11-15T08:09:12;7.87;;;4.80;;
13973;SDS011;7060;43.770;4.008;2022-11-15T08:12:00;5.63;;;4.40;;
13973;SDS011;7060;43.770;4.008;2022-11-15T08:14:47;7.60;;;5.20;;
13973;SDS011;7060;43.770;4.008;2022-11-15T08:17:34;12.33;;;5.37;;
13973;SDS011;7060;43.770;4.008;2022-11-15T08:20:21;7.90;;;4.63;;
13973;SDS011;7060;43.770;4.008;2022-11-15T08:23:10;5.20;;;4.63;;
13973;SDS011;7060;43.770;4.008;2022-11-15T08:26:01;6.57;;;4.67;;
13973;SDS011;7060;43.770;4.008;2022-11-15T08:28:49;5.87;;;4.47;;
13973;SDS011;7060;43.770;4.008;2022-11-15T08:31:36;5.53;;;4.50;;
13973;SDS011;7060;43.770;4.008;2022-11-15T08:34:23;4.37;;;3.97;;
13973;SDS011;7060;43.770;4.008;2022-11-15T08:37:10;5.83;;;5.00;;
13973;SDS011;7060;43.770;4.008;2022-11-15T08:39:59;4.83;;;4.20;;
13973;SDS011;7060;43.770;4.008;2022-11-15T08:42:46;5.37;;;4.30;;
13973;SDS011;7060;43.770;4.008;2022-11-15T08:45:33;4.60;;;3.97;;
13973;SDS011;7060;43.770;4.008;2022-11-15T08:48:21;6.10;;;3.97;;
13973;SDS011;7060;43.770;4.008;2022-11-15T08:51:08;5.87;;;4.13;;
13973;SDS011;7060;43.770;4.008;2022-11-15T08:53:56;5.70;;;4.03;;
13973;SDS011;7060;43.770;4.008;2022-11-15T08:56:44;4.43;;;3.93;;
13973;SDS011;7060;43.770;4.008;2022-11-15T08:59:31;5.67;;;4.27;;
13973;SDS011;7060;43.770;4.008;2022-11-15T09:02:18;4.83;;;4.30;;
13973;SDS011;7060;43.770;4.008;2022-11-15T09:05:06;6.67;;;4.03;;
13973;SDS011;7060;43.770;4.008;2022-11-15T09:07:54;5.37;;;4.43;;
13973;SDS011;7060;43.770;4.008;2022-11-15T09:10:41;6.20;;;4.20;;
13973;SDS011;7060;43.770;4.008;2022-11-15T09:13:30;4.40;;;4.00;;
13973;SDS011;7060;43.770;4.008;2022-11-15T09:16:17;5.10;;;4.17;;
13973;SDS011;7060;43.770;4.008;2022-11-15T09:19:04;6.50;;;4.83;;
13973;SDS011;7060;43.770;4.008;2022-11-15T09:21:56;6.77;;;4.80;;
13973;SDS011;7060;43.770;4.008;2022-11-15T09:24:43;5.83;;;4.60;;
13973;SDS011;7060;43.770;4.008;2022-11-15T09:27:30;5.87;;;4.10;;
13973;SDS011;7060;43.770;4.008;2022-11-15T09:30:18;9.10;;;4.57;;
13973;SDS011;7060;43.770;4.008;2022-11-15T09:33:06;5.67;;;5.10;;
13973;SDS011;7060;43.770;4.008;2022-11-15T09:35:53;8.87;;;6.07;;
13973;SDS011;7060;43.770;4.008;2022-11-15T09:38:45;7.67;;;5.93;;
13973;SDS011;7060;43.770;4.008;2022-11-15T09:41:48;9.07;;;6.17;;
13973;SDS011;7060;43.770;4.008;2022-11-15T09:45:04;9.00;;;4.93;;
13973;SDS011;7060;43.770;4.008;2022-11-15T09:51:30;8.23;;;6.30;;
13973;SDS011;7060;43.770;4.008;2022-11-15T09:54:03;8.23;;;5.30;;
13973;SDS011;7060;43.770;4.008;2022-11-15T09:57:04;5.97;;;5.23;;
13973;SDS011;7060;43.770;4.008;2022-11-15T09:59:51;6.93;;;4.97;;
13973;SDS011;7060;43.770;4.008;2022-11-15T10:02:50;7.27;;;5.90;;
13973;SDS011;7060;43.770;4.008;2022-11-15T10:05:38;9.07;;;5.40;;
13973;SDS011;7060;43.770;4.008;2022-11-15T10:08:16;8.27;;;5.80;;
13973;SDS011;7060;43.770;4.008;2022-11-15T10:10:55;7.43;;;5.37;;
13973;SDS011;7060;43.770;4.008;2022-11-15T10:13:46;8.80;;;5.67;;
13973;SDS011;7060;43.770;4.008;2022-11-15T10:16:21;6.97;;;5.43;;
13973;SDS011;7060;43.770;4.008;2022-11-15T10:19:16;6.43;;;5.30;;
13973;SDS011;7060;43.770;4.008;2022-11-15T10:21:56;8.70;;;5.77;;
13973;SDS011;7060;43.770;4.008;2022-11-15T10:24:35;7.03;;;5.97;;
13973;SDS011;7060;43.770;4.008;2022-11-15T10:27:09;6.40;;;5.73;;
13973;SDS011;7060;43.770;4.008;2022-11-15T10:29:42;8.83;;;6.00;;
13973;SDS011;7060;43.770;4.008;2022-11-15T10:32:11;5.67;;;5.07;;
13973;SDS011;7060;43.770;4.008;2022-11-15T10:34:41;6.03;;;5.43;;
13973;SDS011;7060;43.770;4.008;2022-11-15T10:37:11;7.70;;;5.27;;
13973;SDS011;7060;43.770;4.008;2022-11-15T10:39:40;6.57;;;5.97;;
13973;SDS011;7060;43.770;4.008;2022-11-15T10:42:15;8.80;;;6.30;;
13973;SDS011;7060;43.770;4.008;2022-11-15T10:44:45;8.87;;;5.90;;
13973;SDS011;7060;43.770;4.008;2022-11-15T10:47:21;7.20;;;5.53;;
13973;SDS011;7060;43.770;4.008;2022-11-15T10:50:04;7.67;;;6.17;;
13973;SDS011;7060;43.770;4.008;2022-11-15T10:52:36;10.73;;;6.13;;
13973;SDS011;7060;43.770;4.008;2022-11-15T10:55:21;7.27;;;6.30;;
13973;SDS011;7060;43.770;4.008;2022-11-15T10:57:54;9.30;;;5.90;;
13973;SDS011;7060;43.770;4.008;2022-11-15T11:00:32;7.23;;;6.27;;
13973;SDS011;7060;43.770;4.008;2022-11-15T11:03:04;9.13;;;6.03;;
13973;SDS011;7060;43.770;4.008;2022-11-15T11:05:35;7.23;;;5.80;;
13973;SDS011;7060;43.770;4.008;2022-11-15T11:08:22;7.77;;;6.30;;
13973;SDS011;7060;43.770;4.008;2022-11-15T11:10:51;6.67;;;5.80;;
13973;SDS011;7060;43.770;4.008;2022-11-15T11:13:28;7.77;;;6.23;;
13973;SDS011;7060;43.770;4.008;2022-11-15T11:15:59;7.70;;;6.37;;
13973;SDS011;7060;43.770;4.008;2022-11-15T11:18:49;7.27;;;6.47;;
13973;SDS011;7060;43.770;4.008;2022-11-15T11:21:32;7.50;;;5.57;;
13973;SDS011;7060;43.770;4.008;2022-11-15T11:24:14;11.10;;;6.10;;
13973;SDS011;7060;43.770;4.008;2022-11-15T11:26:57;9.77;;;7.07;;
13973;SDS011;7060;43.770;4.008;2022-11-15T11:29:43;6.10;;;5.50;;
13973;SDS011;7060;43.770;4.008;2022-11-15T11:32:33;8.33;;;5.83;;
13973;SDS011;7060;43.770;4.008;2022-11-15T11:35:11;7.93;;;5.73;;
13973;SDS011;7060;43.770;4.008;2022-11-15T11:37:45;11.20;;;5.73;;
13973;SDS011;7060;43.770;4.008;2022-11-15T11:40:24;8.87;;;6.23;;
13973;SDS011;7060;43.770;4.008;2022-11-15T11:42:59;8.40;;;6.17;;
13973;SDS011;7060;43.770;4.008;2022-11-15T11:45:44;11.23;;;5.97;;
13973;SDS011;7060;43.770;4.008;2022-11-15T11:48:25;10.93;;;7.00;;
13973;SDS011;7060;43.770;4.008;2022-11-15T11:51:10;8.57;;;5.90;;
13973;SDS011;7060;43.770;4.008;2022-11-15T11:53:45;8.70;;;6.43;;
13973;SDS011;7060;43.770;4.008;2022-11-15T11:56:22;8.17;;;6.47;;
13973;SDS011;7060;43.770;4.008;2022-11-15T11:58:53;9.33;;;6.90;;
13973;SDS011;7060;43.770;4.008;2022-11-15T12:01:27;8.47;;;6.77;;
13973;SDS011;7060;43.770;4.008;2022-11-15T12:04:01;9.20;;;6.87;;
13973;SDS011;7060;43.770;4.008;2022-11-15T12:06:38;11.93;;;7.20;;
13973;SDS011;7060;43.770;4.008;2022-11-15T12:09:14;8.23;;;6.77;;
13973;SDS011;7060;43.770;4.008;2022-11-15T12:11:51;7.93;;;6.47;;
13973;SDS011;7060;43.770;4.008;2022-11-15T12:14:30;10.57;;;7.97;;
13973;SDS011;7060;43.770;4.008;2022-11-15T12:17:02;8.00;;;7.10;;
13973;SDS011;7060;43.770;4.008;2022-11-15T12:19:31;10.73;;;6.80;;
13973;SDS011;7060;43.770;4.008;2022-11-15T12:22:00;10.47;;;6.23;;
13973;SDS011;7060;43.770;4.008;2022-11-15T12:24:34;9.07;;;6.47;;
13973;SDS011;7060;43.770;4.008;2022-11-15T12:27:19;7.07;;;6.20;;
13973;SDS011;7060;43.770;4.008;2022-11-15T12:29:54;8.53;;;6.43;;
13973;SDS011;7060;43.770;4.008;2022-11-15T12:32:26;7.70;;;6.90;;
13973;SDS011;7060;43.770;4.008;2022-11-15T12:34:57;9.50;;;6.13;;
13973;SDS011;7060;43.770;4.008;2022-11-15T12:37:34;6.90;;;6.17;;
13973;SDS011;7060;43.770;4.008;2022-11-15T12:40:21;7.13;;;6.43;;
13973;SDS011;7060;43.770;4.008;2022-11-15T12:43:00;10.67;;;6.80;;
13973;SDS011;7060;43.770;4.008;2022-11-15T12:45:44;8.73;;;7.13;;
13973;SDS011;7060;43.770;4.008;2022-11-15T12:57:41;11.07;;;7.50;;
13973;SDS011;7060;43.770;4.008;2022-11-15T13:03:18;7.90;;;6.97;;
13973;SDS011;7060;43.770;4.008;2022-11-15T13:06:07;10.93;;;7.17;;
13973;SDS011;7060;43.770;4.008;2022-11-15T13:08:58;10.83;;;6.63;;
13973;SDS011;7060;43.770;4.008;2022-11-15T13:20:20;8.83;;;6.33;;
13973;SDS011;7060;43.770;4.008;2022-11-15T13:22:51;11.20;;;7.20;;
13973;SDS011;7060;43.770;4.008;2022-11-15T13:28:31;9.97;;;7.23;;
13973;SDS011;7060;43.770;4.008;2022-11-15T13:31:03;9.37;;;7.10;;
13973;SDS011;7060;43.770;4.008;2022-11-15T13:33:46;12.77;;;7.70;;
13973;SDS011;7060;43.770;4.008;2022-11-15T13:36:15;7.57;;;6.40;;
13973;SDS011;7060;43.770;4.008;2022-11-15T13:38:54;7.90;;;6.83;;
13973;SDS011;7060;43.770;4.008;2022-11-15T13:41:26;7.83;;;6.67;;
13973;SDS011;7060;43.770;4.008;2022-11-15T13:43:56;14.77;;;7.20;;
13973;SDS011;7060;43.770;4.008;2022-11-15T13:46:27;10.73;;;6.60;;
13973;SDS011;7060;43.770;4.008;2022-11-15T13:48:57;7.47;;;6.50;;
13973;SDS011;7060;43.770;4.008;2022-11-15T13:51:29;7.67;;;6.37;;
13973;SDS011;7060;43.770;4.008;2022-11-15T13:54:02;11.33;;;7.07;;
13973;SDS011;7060;43.770;4.008;2022-11-15T13:56:42;9.07;;;7.13;;
13973;SDS011;7060;43.770;4.008;2022-11-15T13:59:14;13.93;;;6.60;;
13973;SDS011;7060;43.770;4.008;2022-11-15T14:01:52;7.70;;;6.80;;
13973;SDS011;7060;43.770;4.008;2022-11-15T14:04:24;9.17;;;6.37;;
13973;SDS011;7060;43.770;4.008;2022-11-15T14:06:57;9.80;;;6.80;;
13973;SDS011;7060;43.770;4.008;2022-11-15T14:09:32;7.83;;;6.93;;
13973;SDS011;7060;43.770;4.008;2022-11-15T14:14:54;11.03;;;7.10;;
13973;SDS011;7060;43.770;4.008;2022-11-15T14:17:33;11.47;;;7.17;;
13973;SDS011;7060;43.770;4.008;2022-11-15T14:20:19;10.50;;;8.67;;
13973;SDS011;7060;43.770;4.008;2022-11-15T14:22:54;8.23;;;6.93;;
13973;SDS011;7060;43.770;4.008;2022-11-15T14:25:23;11.70;;;8.57;;
13973;SDS011;7060;43.770;4.008;2022-11-15T14:28:11;13.80;;;7.17;;
13973;SDS011;7060;43.770;4.008;2022-11-15T14:30:42;8.07;;;6.10;;
13973;SDS011;7060;43.770;4.008;2022-11-15T14:33:21;10.37;;;5.87;;
13973;SDS011;7060;43.770;4.008;2022-11-15T14:35:52;12.60;;;6.73;;
13973;SDS011;7060;43.770;4.008;2022-11-15T14:38:22;11.87;;;6.70;;
13973;SDS011;7060;43.770;4.008;2022-11-15T14:40:50;18.27;;;6.47;;
13973;SDS011;7060;43.770;4.008;2022-11-15T14:43:21;14.97;;;6.77;;
13973;SDS011;7060;43.770;4.008;2022-11-15T14:45:50;16.23;;;6.90;;
13973;SDS011;7060;43.770;4.008;2022-11-15T14:48:20;11.47;;;5.87;;
13973;SDS011;7060;43.770;4.008;2022-11-15T14:50:51;13.50;;;6.03;;
13973;SDS011;7060;43.770;4.008;2022-11-15T14:53:21;16.23;;;6.40;;
13973;SDS011;7060;43.770;4.008;2022-11-15T14:55:50;15.67;;;5.50;;
13973;SDS011;7060;43.770;4.008;2022-11-15T14:58:18;18.80;;;5.87;;
13973;SDS011;7060;43.770;4.008;2022-11-15T15:00:48;11.77;;;5.57;;
13973;SDS011;7060;43.770;4.008;2022-11-15T15:03:17;12.83;;;5.30;;
13973;SDS011;7060;43.770;4.008;2022-11-15T15:05:45;9.03;;;5.57;;
13973;SDS011;7060;43.770;4.008;2022-11-15T15:08:14;13.80;;;5.33;;
13973;SDS011;7060;43.770;4.008;2022-11-15T15:10:43;11.50;;;5.23;;
13973;SDS011;7060;43.770;4.008;2022-11-15T15:13:15;15.30;;;5.30;;
13973;SDS011;7060;43.770;4.008;2022-11-15T15:15:46;8.40;;;4.50;;
13973;SDS011;7060;43.770;4.008;2022-11-15T15:18:17;12.47;;;5.00;;
13973;SDS011;7060;43.770;4.008;2022-11-15T15:20:54;12.20;;;5.30;;
13973;SDS011;7060;43.770;4.008;2022-11-15T15:23:26;14.60;;;4.97;;
13973;SDS011;7060;43.770;4.008;2022-11-15T15:25:57;9.90;;;4.93;;
13973;SDS011;7060;43.770;4.008;2022-11-15T15:28:26;14.10;;;5.63;;
13973;SDS011;7060;43.770;4.008;2022-11-15T15:31:01;14.87;;;5.00;;
13973;SDS011;7060;43.770;4.008;2022-11-15T15:33:30;9.20;;;5.23;;
13973;SDS011;7060;43.770;4.008;2022-11-15T15:36:00;12.37;;;6.33;;
13973;SDS011;7060;43.770;4.008;2022-11-15T15:38:29;14.83;;;6.10;;
13973;SDS011;7060;43.770;4.008;2022-11-15T15:40:58;9.30;;;4.57;;
13973;SDS011;7060;43.770;4.008;2022-11-15T15:43:29;8.97;;;4.87;;
13973;SDS011;7060;43.770;4.008;2022-11-15T15:45:59;10.93;;;5.83;;
13973;SDS011;7060;43.770;4.008;2022-11-15T15:48:32;11.27;;;5.23;;
13973;SDS011;7060;43.770;4.008;2022-11-15T15:51:04;8.67;;;5.37;;
13973;SDS011;7060;43.770;4.008;2022-11-15T15:53:44;10.03;;;5.13;;
13973;SDS011;7060;43.770;4.008;2022-11-15T15:56:12;11.07;;;5.00;;
13973;SDS011;7060;43.770;4.008;2022-11-15T15:58:41;11.67;;;5.07;;
13973;SDS011;7060;43.770;4.008;2022-11-15T16:01:09;9.00;;;5.80;;
13973;SDS011;7060;43.770;4.008;2022-11-15T16:03:39;12.60;;;5.13;;
13973;SDS011;7060;43.770;4.008;2022-11-15T16:09:02;13.20;;;5.73;;
13973;SDS011;7060;43.770;4.008;2022-11-15T16:11:41;10.93;;;5.43;;
13973;SDS011;7060;43.770;4.008;2022-11-15T16:14:10;13.43;;;4.87;;
13973;SDS011;7060;43.770;4.008;2022-11-15T16:16:39;17.10;;;5.77;;
13973;SDS011;7060;43.770;4.008;2022-11-15T16:19:09;13.97;;;5.37;;
13973;SDS011;7060;43.770;4.008;2022-11-15T16:21:39;11.00;;;5.60;;
13973;SDS011;7060;43.770;4.008;2022-11-15T16:24:08;13.33;;;5.83;;
13973;SDS011;7060;43.770;4.008;2022-11-15T16:26:36;9.67;;;5.50;;
13973;SDS011;7060;43.770;4.008;2022-11-15T16:29:07;10.33;;;5.83;;
13973;SDS011;7060;43.770;4.008;2022-11-15T16:31:36;10.97;;;5.80;;
13973;SDS011;7060;43.770;4.008;2022-11-15T16:34:05;10.17;;;6.47;;
13973;SDS011;7060;43.770;4.008;2022-11-15T16:36:35;13.00;;;6.03;;
13973;SDS011;7060;43.770;4.008;2022-11-15T16:39:04;13.87;;;6.00;;
13973;SDS011;7060;43.770;4.008;2022-11-15T16:41:33;9.40;;;6.17;;
13973;SDS011;7060;43.770;4.008;2022-11-15T16:44:01;9.73;;;5.50;;
13973;SDS011;7060;43.770;4.008;2022-11-15T16:46:30;9.50;;;5.80;;
13973;SDS011;7060;43.770;4.008;2022-11-15T16:48:59;8.63;;;4.93;;
13973;SDS011;7060;43.770;4.008;2022-11-15T16:51:28;9.20;;;5.77;;
13973;SDS011;7060;43.770;4.008;2022-11-15T16:53:58;9.73;;;6.30;;
13973;SDS011;7060;43.770;4.008;2022-11-15T16:56:27;10.23;;;5.20;;
13973;SDS011;7060;43.770;4.008;2022-11-15T16:58:58;9.10;;;5.97;;
13973;SDS011;7060;43.770;4.008;2022-11-15T17:01:27;7.43;;;5.53;;
13973;SDS011;7060;43.770;4.008;2022-11-15T17:04:00;13.50;;;6.43;;
13973;SDS011;7060;43.770;4.008;2022-11-15T17:06:38;12.63;;;6.17;;
13973;SDS011;7060;43.770;4.008;2022-11-15T17:09:09;11.13;;;6.23;;
13973;SDS011;7060;43.770;4.008;2022-11-15T17:11:38;9.63;;;5.50;;
13973;SDS011;7060;43.770;4.008;2022-11-15T17:14:08;10.63;;;5.40;;
13973;SDS011;7060;43.770;4.008;2022-11-15T17:16:37;10.53;;;5.90;;
13973;SDS011;7060;43.770;4.008;2022-11-15T17:19:10;11.13;;;5.80;;
13973;SDS011;7060;43.770;4.008;2022-11-15T17:21:40;8.93;;;6.00;;
13973;SDS011;7060;43.770;4.008;2022-11-15T17:24:11;11.77;;;6.53;;
13973;SDS011;7060;43.770;4.008;2022-11-15T17:26:40;10.03;;;6.73;;
13973;SDS011;7060;43.770;4.008;2022-11-15T17:29:09;8.33;;;5.70;;
13973;SDS011;7060;43.770;4.008;2022-11-15T17:31:38;11.13;;;6.27;;
13973;SDS011;7060;43.770;4.008;2022-11-15T17:34:06;11.40;;;6.90;;
13973;SDS011;7060;43.770;4.008;2022-11-15T17:36:35;10.10;;;6.70;;
13973;SDS011;7060;43.770;4.008;2022-11-15T17:39:04;10.97;;;7.53;;
13973;SDS011;7060;43.770;4.008;2022-11-15T17:41:34;10.60;;;6.37;;
13973;SDS011;7060;43.770;4.008;2022-11-15T17:44:03;9.53;;;7.43;;
13973;SDS011;7060;43.770;4.008;2022-11-15T17:46:33;12.17;;;6.27;;
13973;SDS011;7060;43.770;4.008;2022-11-15T17:49:03;9.93;;;6.70;;
13973;SDS011;7060;43.770;4.008;2022-11-15T17:51:32;11.40;;;6.70;;
13973;SDS011;7060;43.770;4.008;2022-11-15T17:54:01;10.50;;;7.20;;
13973;SDS011;7060;43.770;4.008;2022-11-15T17:56:29;10.43;;;6.57;;
13973;SDS011;7060;43.770;4.008;2022-11-15T17:59:02;8.33;;;7.50;;
13973;SDS011;7060;43.770;4.008;2022-11-15T18:01:42;9.23;;;7.20;;
13973;SDS011;7060;43.770;4.008;2022-11-15T18:04:11;8.43;;;6.80;;
13973;SDS011;7060;43.770;4.008;2022-11-15T18:06:40;9.00;;;6.90;;
13973;SDS011;7060;43.770;4.008;2022-11-15T18:09:10;8.93;;;6.77;;
13973;SDS011;7060;43.770;4.008;2022-11-15T18:11:40;8.83;;;6.33;;
13973;SDS011;7060;43.770;4.008;2022-11-15T18:14:13;10.37;;;7.13;;
13973;SDS011;7060;43.770;4.008;2022-11-15T18:16:43;9.73;;;7.13;;
13973;SDS011;7060;43.770;4.008;2022-11-15T18:19:12;10.47;;;6.97;;
13973;SDS011;7060;43.770;4.008;2022-11-15T18:21:43;8.53;;;6.80;;
13973;SDS011;7060;43.770;4.008;2022-11-15T18:27:05;9.43;;;7.07;;
13973;SDS011;7060;43.770;4.008;2022-11-15T18:29:36;11.33;;;6.80;;
13973;SDS011;7060;43.770;4.008;2022-11-15T18:32:06;8.13;;;6.50;;